createdAt,value
2022-10-09T00:00:51.100Z,75.80
2022-10-09T00:03:41.591Z,76.60
2022-10-09T00:06:32.740Z,76.20
2022-10-09T00:09:22.807Z,76.30
2022-10-09T00:12:11.410Z,75.30
2022-10-09T00:15:00.173Z,76.00
2022-10-09T00:17:48.784Z,76.30
2022-10-09T00:20:38.729Z,76.90
2022-10-09T00:23:27.543Z,76.40
2022-10-09T00:26:17.863Z,76.30
2022-10-09T00:29:06.760Z,77.10
2022-10-09T00:31:55.422Z,78.50
2022-10-09T00:34:44.313Z,79.20
2022-10-09T00:37:32.929Z,78.80
2022-10-09T00:40:21.581Z,78.80
2022-10-09T00:43:17.364Z,79.10
2022-10-09T00:46:06.370Z,79.60
2022-10-09T00:49:00.895Z,79.30
2022-10-09T00:51:51.247Z,79.00
2022-10-09T00:54:42.821Z,79.40
2022-10-09T00:57:34.305Z,79.80
2022-10-09T01:00:25.112Z,79.90
2022-10-09T01:03:13.741Z,79.80
2022-10-09T01:06:09.765Z,80.10
2022-10-09T01:09:05.335Z,79.80
2022-10-09T01:12:00.146Z,79.90
2022-10-09T01:14:55.647Z,81.00
2022-10-09T01:17:55.458Z,80.90
2022-10-09T01:20:50.580Z,79.50
2022-10-09T01:24:07.684Z,79.50
2022-10-09T01:27:07.162Z,79.20
2022-10-09T01:29:59.818Z,79.00
2022-10-09T01:32:51.963Z,79.30
2022-10-09T01:35:42.112Z,79.80
2022-10-09T01:38:31.643Z,80.70
2022-10-09T01:41:21.137Z,80.60
2022-10-09T01:44:19.206Z,80.70
2022-10-09T01:47:08.000Z,81.00
2022-10-09T01:50:02.874Z,81.90
2022-10-09T01:52:54.543Z,80.90
2022-10-09T01:55:49.833Z,81.20
2022-10-09T01:58:44.614Z,80.50
2022-10-09T02:01:37.846Z,80.70
2022-10-09T02:04:28.336Z,80.90
2022-10-09T02:07:17.823Z,81.60
2022-10-09T02:10:08.025Z,80.90
2022-10-09T02:12:58.842Z,80.30
2022-10-09T02:15:51.685Z,80.30
2022-10-09T02:18:45.464Z,80.20
2022-10-09T02:21:43.033Z,80.40
2022-10-09T02:24:35.408Z,81.30
2022-10-09T02:27:24.964Z,80.20
2022-10-09T02:30:15.239Z,79.40
2022-10-09T02:33:05.305Z,80.40
2022-10-09T02:35:55.451Z,78.60
2022-10-09T02:38:43.992Z,77.70
2022-10-09T02:41:32.657Z,77.80
2022-10-09T02:44:21.144Z,77.90
2022-10-09T02:47:09.735Z,78.20
2022-10-09T02:49:58.277Z,78.20
2022-10-09T02:52:48.423Z,78.40
2022-10-09T02:55:37.989Z,78.80
2022-10-09T02:58:26.536Z,79.30
2022-10-09T03:01:15.574Z,79.70
2022-10-09T03:04:04.108Z,80.00
2022-10-09T03:06:52.706Z,79.90
2022-10-09T03:09:42.917Z,79.70
2022-10-09T03:12:31.464Z,79.90
2022-10-09T03:15:20.025Z,80.30
2022-10-09T03:18:08.592Z,80.40
2022-10-09T03:20:57.141Z,80.80
2022-10-09T03:23:45.926Z,81.10
2022-10-09T03:26:35.886Z,82.00
2022-10-09T03:29:24.486Z,82.10
2022-10-09T03:32:13.103Z,82.30
2022-10-09T03:35:01.691Z,82.40
2022-10-09T03:37:50.350Z,83.00
2022-10-09T03:40:38.877Z,83.90
2022-10-09T03:43:29.660Z,84.00
2022-10-09T03:46:18.274Z,83.10
2022-10-09T03:49:06.839Z,82.40
2022-10-09T03:51:55.416Z,82.30
2022-10-09T03:54:43.956Z,82.60
2022-10-09T03:57:32.538Z,82.90
2022-10-09T04:00:22.593Z,83.30
2022-10-09T04:03:11.204Z,83.50
2022-10-09T04:05:59.765Z,83.50
2022-10-09T04:08:48.346Z,83.50
2022-10-09T04:11:36.935Z,83.80
2022-10-09T04:14:25.490Z,84.30
2022-10-09T04:17:15.448Z,84.70
2022-10-09T04:20:04.113Z,84.90
2022-10-09T04:22:52.676Z,85.30
2022-10-09T04:25:41.196Z,85.40
2022-10-09T04:28:31.304Z,85.30
2022-10-09T04:31:19.996Z,84.90
2022-10-09T04:34:10.060Z,84.90
2022-10-09T04:36:58.651Z,85.30
2022-10-09T04:39:47.190Z,85.40
2022-10-09T04:42:35.756Z,85.10
2022-10-09T04:45:24.358Z,85.10
2022-10-09T04:48:12.948Z,85.20
2022-10-09T04:51:05.289Z,85.20
2022-10-09T04:53:57.185Z,85.10
2022-10-09T04:56:48.452Z,85.00
2022-10-09T04:59:37.120Z,85.00
2022-10-09T05:02:25.731Z,85.10
2022-10-09T05:05:14.301Z,84.80
2022-10-09T05:08:04.397Z,84.90
2022-10-09T05:10:52.941Z,84.80
2022-10-09T05:13:42.769Z,84.80
2022-10-09T05:16:37.670Z,85.40
2022-10-09T05:19:38.228Z,84.80
2022-10-09T05:22:26.755Z,85.00
2022-10-09T05:25:16.989Z,85.00
2022-10-09T05:28:06.413Z,84.80
2022-10-09T05:30:55.297Z,84.90
2022-10-09T05:33:43.848Z,85.30
2022-10-09T05:36:32.529Z,85.40
2022-10-09T05:39:21.132Z,85.60
2022-10-09T05:42:11.069Z,85.60
2022-10-09T05:44:59.628Z,85.60
2022-10-09T05:47:48.179Z,85.80
2022-10-09T05:50:36.761Z,86.10
2022-10-09T05:53:25.335Z,86.30
2022-10-09T05:56:15.758Z,86.50
2022-10-09T05:59:07.220Z,87.00
2022-10-09T06:01:55.763Z,86.10
2022-10-09T06:04:44.446Z,86.20
2022-10-09T06:07:32.969Z,86.30
2022-10-09T06:10:21.538Z,87.40
2022-10-09T06:13:10.131Z,87.70
2022-10-09T06:16:00.071Z,86.60
2022-10-09T06:18:49.794Z,78.30
2022-10-09T06:21:38.413Z,65.70
2022-10-09T06:24:29.364Z,55.10
2022-10-09T06:27:18.204Z,42.00
2022-10-09T06:30:07.636Z,34.00
2022-10-09T06:32:57.579Z,29.20
2022-10-09T06:35:46.134Z,23.30
2022-10-09T06:38:35.203Z,21.90
2022-10-09T06:41:25.947Z,18.80
2022-10-09T06:44:17.163Z,22.20
2022-10-09T06:47:06.234Z,23.80
2022-10-09T06:49:57.285Z,24.60
2022-10-09T06:52:45.992Z,29.10
2022-10-09T06:55:34.784Z,30.40
2022-10-09T06:58:23.407Z,31.20
2022-10-09T07:01:14.430Z,32.50
2022-10-09T07:04:07.046Z,34.20
2022-10-09T07:06:57.020Z,32.40
2022-10-09T07:09:45.611Z,33.50
2022-10-09T07:12:35.694Z,34.30
2022-10-09T07:15:24.253Z,33.10
2022-10-09T07:18:12.825Z,30.60
2022-10-09T07:21:03.299Z,29.20
2022-10-09T07:23:54.149Z,29.10
2022-10-09T07:26:44.754Z,29.70
2022-10-09T07:29:33.328Z,32.80
2022-10-09T07:32:21.855Z,25.50
2022-10-09T07:35:10.799Z,27.60
2022-10-09T07:37:59.347Z,24.80
2022-10-09T07:40:49.355Z,23.60
2022-10-09T07:43:38.902Z,25.10
2022-10-09T07:46:33.366Z,23.10
2022-10-09T07:49:22.910Z,21.60
2022-10-09T07:52:11.434Z,19.10
2022-10-09T07:55:00.036Z,24.30
2022-10-09T07:57:49.990Z,24.60
2022-10-09T08:00:38.574Z,21.90
2022-10-09T08:03:27.127Z,25.70
2022-10-09T08:06:15.745Z,26.00
2022-10-09T08:09:06.154Z,25.00
2022-10-09T08:11:54.806Z,19.30
2022-10-09T08:14:46.985Z,24.00
2022-10-09T08:17:35.549Z,21.70
2022-10-09T08:20:24.213Z,21.90
2022-10-09T08:23:12.816Z,24.00
2022-10-09T08:26:01.684Z,23.40
2022-10-09T08:28:52.341Z,19.00
2022-10-09T08:31:42.415Z,20.50
2022-10-09T08:34:31.173Z,19.60
2022-10-09T08:37:19.800Z,19.00
2022-10-09T08:40:09.524Z,17.50
2022-10-09T08:43:04.419Z,18.40
2022-10-09T08:45:53.856Z,18.40
2022-10-09T08:48:46.996Z,20.30
2022-10-09T08:51:39.549Z,16.60
2022-10-09T08:54:34.543Z,15.00
2022-10-09T08:57:24.118Z,18.90
2022-10-09T09:00:19.467Z,15.10
2022-10-09T09:03:31.121Z,18.80
2022-10-09T09:06:28.713Z,14.50
2022-10-09T09:09:24.777Z,13.60
2022-10-09T09:12:19.682Z,13.60
2022-10-09T09:15:29.186Z,14.90
2022-10-09T09:18:42.680Z,11.60
2022-10-09T09:21:39.946Z,12.70
2022-10-09T09:24:35.022Z,11.30
2022-10-09T09:27:29.969Z,8.00
2022-10-09T09:30:22.305Z,8.40
2022-10-09T09:33:20.485Z,3.40
2022-10-09T09:36:13.281Z,2.80
2022-10-09T09:39:44.561Z,4.80
2022-10-09T09:42:17.655Z,6.20
2022-10-09T09:45:13.924Z,9.70
2022-10-09T09:48:10.817Z,5.40
2022-10-09T09:51:23.522Z,3.60
2022-10-09T09:54:18.481Z,1.50
2022-10-09T09:57:17.143Z,1.70
2022-10-09T10:00:19.666Z,5.80
2022-10-09T10:03:15.153Z,1.90
2022-10-09T10:06:04.034Z,2.20
2022-10-09T10:09:15.674Z,3.80
2022-10-09T10:12:07.229Z,3.80
2022-10-09T10:14:55.927Z,3.30
2022-10-09T10:17:44.534Z,7.70
2022-10-09T10:20:35.252Z,5.50
2022-10-09T10:23:31.105Z,3.60
2022-10-09T10:26:26.376Z,2.50
2022-10-09T10:29:18.042Z,1.00
2022-10-09T10:32:14.234Z,1.00
2022-10-09T10:35:06.203Z,1.00
2022-10-09T10:38:00.609Z,2.00
2022-10-09T10:40:53.938Z,1.00
2022-10-09T10:43:46.710Z,1.00
2022-10-09T10:46:40.803Z,1.00
2022-10-09T10:49:33.490Z,1.00
2022-10-09T10:52:34.503Z,1.00
2022-10-09T10:55:34.497Z,1.00
2022-10-09T10:58:28.762Z,1.00
2022-10-09T11:01:31.996Z,1.00
2022-10-09T11:04:43.577Z,1.00
2022-10-09T11:07:36.488Z,1.00
2022-10-09T11:10:33.995Z,1.00
2022-10-09T11:13:28.122Z,1.00
2022-10-09T11:16:32.957Z,1.00
2022-10-09T11:19:43.056Z,1.00
2022-10-09T11:22:50.209Z,1.00
2022-10-09T11:25:47.468Z,1.00
2022-10-09T11:28:43.225Z,1.00
2022-10-09T11:31:41.616Z,1.00
2022-10-09T11:34:34.879Z,1.00
2022-10-09T11:37:28.397Z,1.00
2022-10-09T11:40:20.020Z,1.00
2022-10-09T11:43:17.794Z,1.00
2022-10-09T11:46:11.719Z,1.00
2022-10-09T11:49:11.075Z,1.00
2022-10-09T11:52:10.029Z,1.00
2022-10-09T11:55:09.834Z,1.00
2022-10-09T11:58:14.902Z,1.00
2022-10-09T12:01:20.508Z,1.00
2022-10-09T12:04:37.417Z,1.00
2022-10-09T12:07:35.156Z,1.00
2022-10-09T12:10:29.155Z,1.00
2022-10-09T12:13:42.343Z,1.00
2022-10-09T12:16:35.082Z,1.00
2022-10-09T12:19:28.340Z,1.00
2022-10-09T12:22:20.985Z,1.00
2022-10-09T12:25:18.170Z,1.00
2022-10-09T12:28:07.795Z,1.00
2022-10-09T12:30:57.933Z,1.00
2022-10-09T12:33:50.523Z,1.00
2022-10-09T12:36:40.560Z,1.00
2022-10-09T12:39:29.099Z,1.00
2022-10-09T12:42:22.128Z,1.00
2022-10-09T12:45:18.092Z,1.00
2022-10-09T12:48:12.260Z,1.00
2022-10-09T12:51:00.825Z,1.00
2022-10-09T12:53:53.256Z,1.00
2022-10-09T12:56:41.943Z,1.00
2022-10-09T12:59:31.020Z,1.00
2022-10-09T13:02:22.269Z,1.00
2022-10-09T13:05:11.030Z,1.00
2022-10-09T13:07:59.670Z,1.00
2022-10-09T13:10:49.756Z,1.00
2022-10-09T13:13:39.076Z,1.00
2022-10-09T13:16:27.849Z,1.00
2022-10-09T13:19:24.768Z,1.00
2022-10-09T13:22:21.200Z,1.00
2022-10-09T13:25:10.710Z,1.00
2022-10-09T13:28:00.938Z,1.00
2022-10-09T13:30:49.534Z,1.00
2022-10-09T13:33:38.134Z,1.00
2022-10-09T13:36:26.691Z,1.00
2022-10-09T13:39:16.280Z,1.00
2022-10-09T13:42:05.416Z,1.00
2022-10-09T13:44:55.298Z,1.00
2022-10-09T13:47:43.873Z,1.00
2022-10-09T13:50:32.424Z,1.00
2022-10-09T13:53:21.013Z,1.00
2022-10-09T13:56:09.700Z,1.00
2022-10-09T13:58:58.261Z,1.00
2022-10-09T14:01:48.281Z,1.00
2022-10-09T14:04:36.896Z,1.00
2022-10-09T14:07:25.541Z,1.00
2022-10-09T14:10:14.153Z,1.00
2022-10-09T14:13:02.721Z,1.00
2022-10-09T14:15:53.216Z,1.00
2022-10-09T14:18:43.154Z,1.00
2022-10-09T14:21:32.255Z,1.00
2022-10-09T14:24:20.810Z,1.00
2022-10-09T14:27:09.370Z,1.00
2022-10-09T14:29:57.935Z,1.00
2022-10-09T14:32:46.797Z,1.00
2022-10-09T14:35:37.021Z,1.00
2022-10-09T14:38:25.577Z,1.00
2022-10-09T14:41:14.458Z,1.00
2022-10-09T14:44:03.167Z,1.00
2022-10-09T14:46:51.725Z,1.00
2022-10-09T14:49:40.262Z,1.00
2022-10-09T14:52:30.522Z,1.00
2022-10-09T14:55:19.154Z,1.00
2022-10-09T14:58:07.729Z,1.00
2022-10-09T15:00:56.280Z,1.00
2022-10-09T15:03:46.067Z,1.00
2022-10-09T15:06:35.021Z,1.00
2022-10-09T15:09:25.154Z,1.00
2022-10-09T15:12:13.676Z,1.00
2022-10-09T15:15:02.253Z,1.00
2022-10-09T15:17:51.030Z,1.00
2022-10-09T15:20:39.876Z,1.00
2022-10-09T15:23:28.763Z,1.00
2022-10-09T15:26:18.905Z,1.00
2022-10-09T15:29:09.594Z,1.00
2022-10-09T15:31:58.140Z,1.00
2022-10-09T15:34:46.639Z,1.00
2022-10-09T15:37:35.248Z,1.00
2022-10-09T15:40:23.828Z,1.00
2022-10-09T15:43:14.224Z,1.00
2022-10-09T15:46:04.465Z,1.00
2022-10-09T15:48:53.356Z,1.00
2022-10-09T15:51:42.165Z,1.00
2022-10-09T15:54:30.802Z,1.00
2022-10-09T15:57:19.570Z,1.00
2022-10-09T16:00:11.029Z,1.00
2022-10-09T16:02:59.565Z,1.00
2022-10-09T16:05:51.040Z,1.00
2022-10-09T16:08:39.942Z,1.00
2022-10-09T16:11:28.537Z,1.00
2022-10-09T16:14:17.095Z,1.00
2022-10-09T16:17:11.081Z,1.00
2022-10-09T16:20:00.295Z,1.00
2022-10-09T16:22:48.981Z,1.00
2022-10-09T16:25:39.281Z,1.00
2022-10-09T16:28:28.694Z,1.00
2022-10-09T16:31:21.939Z,1.00
2022-10-09T16:34:12.076Z,1.00
2022-10-09T16:37:02.265Z,1.00
2022-10-09T16:39:50.793Z,1.00
2022-10-09T16:42:39.380Z,1.00
2022-10-09T16:45:28.433Z,1.00
2022-10-09T16:48:17.152Z,1.00
2022-10-09T16:51:11.352Z,1.00
2022-10-09T16:54:02.233Z,1.00
2022-10-09T16:56:50.840Z,1.00
2022-10-09T16:59:39.726Z,1.00
2022-10-09T17:02:28.765Z,1.00
2022-10-09T17:05:17.461Z,1.00
2022-10-09T17:08:07.427Z,1.00
2022-10-09T17:10:55.998Z,1.00
2022-10-09T17:13:45.084Z,2.70
2022-10-09T17:16:35.952Z,2.90
2022-10-09T17:19:24.528Z,4.60
2022-10-09T17:22:13.071Z,5.10
2022-10-09T17:25:03.291Z,6.30
2022-10-09T17:27:51.817Z,6.30
2022-10-09T17:30:41.578Z,6.30
2022-10-09T17:33:30.733Z,7.50
2022-10-09T17:36:21.696Z,8.30
2022-10-09T17:39:14.094Z,9.30
2022-10-09T17:42:04.048Z,9.70
2022-10-09T17:44:52.581Z,9.40
2022-10-09T17:47:41.127Z,10.10
2022-10-09T17:50:29.684Z,8.70
2022-10-09T17:53:18.243Z,8.20
2022-10-09T17:56:06.904Z,6.70
2022-10-09T17:58:57.331Z,6.80
2022-10-09T18:01:47.368Z,7.10
2022-10-09T18:04:35.954Z,6.50
2022-10-09T18:07:24.875Z,7.50
2022-10-09T18:10:16.687Z,7.50
2022-10-09T18:13:05.580Z,9.20
2022-10-09T18:15:55.882Z,8.10
2022-10-09T18:18:44.843Z,8.40
2022-10-09T18:21:34.147Z,8.50
2022-10-09T18:24:22.722Z,8.30
2022-10-09T18:27:11.270Z,8.90
2022-10-09T18:29:59.837Z,10.00
2022-10-09T18:32:50.551Z,11.10
2022-10-09T18:35:40.407Z,12.00
2022-10-09T18:38:28.991Z,12.60
2022-10-09T18:41:17.945Z,12.20
2022-10-09T18:44:07.517Z,12.70
2022-10-09T18:46:59.084Z,12.40
2022-10-09T18:49:55.808Z,13.60
2022-10-09T18:52:45.079Z,14.30
2022-10-09T18:55:34.109Z,16.70
2022-10-09T18:58:22.938Z,15.50
2022-10-09T19:01:11.973Z,14.10
2022-10-09T19:04:00.569Z,13.40
2022-10-09T19:06:51.357Z,13.80
2022-10-09T19:09:40.474Z,13.90
2022-10-09T19:12:29.060Z,12.50
2022-10-09T19:15:17.922Z,12.20
2022-10-09T19:18:06.876Z,12.00
2022-10-09T19:20:55.506Z,12.30
2022-10-09T19:23:48.066Z,13.00
2022-10-09T19:26:36.671Z,13.90
2022-10-09T19:29:25.448Z,14.60
2022-10-09T19:32:14.024Z,15.70
2022-10-09T19:35:02.675Z,13.40
2022-10-09T19:37:51.601Z,11.60
2022-10-09T19:40:41.984Z,10.20
2022-10-09T19:43:31.849Z,9.40
2022-10-09T19:46:22.699Z,8.70
2022-10-09T19:49:11.191Z,8.30
2022-10-09T19:51:59.784Z,7.90
2022-10-09T19:54:48.345Z,7.00
2022-10-09T19:57:38.294Z,6.50
2022-10-09T20:00:26.919Z,6.00
2022-10-09T20:03:15.964Z,5.50
2022-10-09T20:06:05.126Z,5.20
2022-10-09T20:08:54.012Z,4.80
2022-10-09T20:11:42.677Z,4.20
2022-10-09T20:14:32.652Z,4.50
2022-10-09T20:17:21.208Z,4.70
2022-10-09T20:20:10.605Z,3.40
2022-10-09T20:22:59.162Z,3.30
2022-10-09T20:25:48.513Z,3.30
2022-10-09T20:28:38.820Z,3.50
2022-10-09T20:31:30.320Z,3.40
2022-10-09T20:34:18.901Z,2.90
2022-10-09T20:37:07.445Z,2.80
2022-10-09T20:39:56.211Z,2.60
2022-10-09T20:42:44.773Z,2.70
2022-10-09T20:45:33.387Z,2.20
2022-10-09T20:48:23.340Z,1.10
2022-10-09T20:51:12.081Z,1.00
2022-10-09T20:54:01.724Z,1.00
2022-10-09T20:56:50.928Z,1.00
2022-10-09T20:59:39.496Z,1.00
2022-10-09T21:02:28.077Z,1.00
2022-10-09T21:05:18.121Z,1.00
2022-10-09T21:08:07.333Z,1.00
2022-10-09T21:10:55.929Z,1.10
2022-10-09T21:13:45.242Z,1.40
2022-10-09T21:16:33.870Z,1.40
2022-10-09T21:19:22.502Z,2.10
2022-10-09T21:22:13.258Z,2.00
2022-10-09T21:25:01.889Z,2.30
2022-10-09T21:27:50.492Z,3.40
2022-10-09T21:30:41.726Z,3.80
2022-10-09T21:33:30.474Z,3.80
2022-10-09T21:36:24.220Z,4.30
2022-10-09T21:39:14.548Z,4.30
2022-10-09T21:42:03.154Z,3.90
2022-10-09T21:44:51.729Z,4.40
2022-10-09T21:47:41.252Z,4.80
2022-10-09T21:50:30.210Z,5.00
2022-10-09T21:53:18.736Z,4.90
2022-10-09T21:56:09.952Z,4.80
2022-10-09T21:58:58.489Z,5.10
2022-10-09T22:01:47.155Z,6.00
2022-10-09T22:04:35.978Z,6.50
2022-10-09T22:07:26.424Z,7.70
2022-10-09T22:10:15.368Z,8.50
2022-10-09T22:13:05.304Z,9.00
2022-10-09T22:15:53.900Z,9.70
2022-10-09T22:18:43.446Z,9.40
2022-10-09T22:21:32.333Z,9.20
2022-10-09T22:24:20.978Z,9.00
2022-10-09T22:27:09.586Z,9.20
2022-10-09T22:29:59.577Z,10.50
2022-10-09T22:32:48.469Z,10.00
2022-10-09T22:35:37.303Z,11.10
2022-10-09T22:38:25.820Z,11.10
2022-10-09T22:41:16.011Z,10.60
2022-10-09T22:44:06.483Z,10.20
2022-10-09T22:46:56.465Z,10.90
2022-10-09T22:49:45.200Z,12.90
2022-10-09T22:52:33.791Z,13.80
2022-10-09T22:55:22.373Z,15.10
2022-10-09T22:58:10.897Z,16.30
2022-10-09T23:01:02.614Z,18.00
2022-10-09T23:03:52.707Z,18.70
2022-10-09T23:06:42.023Z,19.90
2022-10-09T23:09:32.590Z,21.30
2022-10-09T23:12:21.182Z,22.30
2022-10-09T23:15:10.379Z,23.70
2022-10-09T23:17:58.934Z,25.20
2022-10-09T23:20:48.883Z,26.50
2022-10-09T23:23:37.663Z,28.60
2022-10-09T23:26:28.902Z,29.60
2022-10-09T23:29:19.397Z,31.10
2022-10-09T23:32:08.002Z,33.50
2022-10-09T23:34:56.540Z,36.10
2022-10-09T23:37:46.465Z,37.50
2022-10-09T23:40:35.034Z,39.10
2022-10-09T23:43:23.641Z,39.80
2022-10-09T23:46:14.325Z,40.10
2022-10-09T23:49:03.263Z,38.40
2022-10-09T23:51:51.829Z,38.40
2022-10-09T23:54:41.913Z,38.60
2022-10-09T23:57:30.498Z,39.50
